sensor_id;sensor_type;location;lat;lon;timestamp;P1;durP1;ratioP1;P2;durP2;ratioP2
5674;SDS011;2860;54.284;10.158;2022-09-09T00:03:43;37.38;;;24.40;;
5674;SDS011;2860;54.284;10.158;2022-09-09T00:11:26;39.03;;;26.95;;
5674;SDS011;2860;54.284;10.158;2022-09-09T00:14:10;40.40;;;28.25;;
5674;SDS011;2860;54.284;10.158;2022-09-09T00:16:44;43.08;;;28.17;;
5674;SDS011;2860;54.284;10.158;2022-09-09T00:19:18;42.53;;;26.77;;
5674;SDS011;2860;54.284;10.158;2022-09-09T00:21:58;47.08;;;27.52;;
5674;SDS011;2860;54.284;10.158;2022-09-09T00:24:32;46.53;;;28.20;;
5674;SDS011;2860;54.284;10.158;2022-09-09T00:27:01;45.75;;;29.58;;
5674;SDS011;2860;54.284;10.158;2022-09-09T00:29:36;40.60;;;28.67;;
5674;SDS011;2860;54.284;10.158;2022-09-09T00:32:12;48.60;;;29.60;;
5674;SDS011;2860;54.284;10.158;2022-09-09T00:34:46;38.33;;;27.40;;
5674;SDS011;2860;54.284;10.158;2022-09-09T00:37:14;33.40;;;25.45;;
5674;SDS011;2860;54.284;10.158;2022-09-09T00:39:41;38.97;;;27.52;;
5674;SDS011;2860;54.284;10.158;2022-09-09T00:42:25;47.88;;;30.45;;
5674;SDS011;2860;54.284;10.158;2022-09-09T00:50:14;41.38;;;29.63;;
5674;SDS011;2860;54.284;10.158;2022-09-09T00:55:45;43.45;;;28.48;;
5674;SDS011;2860;54.284;10.158;2022-09-09T00:58:16;46.40;;;27.50;;
5674;SDS011;2860;54.284;10.158;2022-09-09T01:00:43;38.90;;;26.58;;
5674;SDS011;2860;54.284;10.158;2022-09-09T01:09:18;51.65;;;27.70;;
5674;SDS011;2860;54.284;10.158;2022-09-09T01:17:01;44.47;;;28.88;;
5674;SDS011;2860;54.284;10.158;2022-09-09T01:19:45;47.25;;;26.80;;
5674;SDS011;2860;54.284;10.158;2022-09-09T01:27:43;43.33;;;27.05;;
5674;SDS011;2860;54.284;10.158;2022-09-09T01:30:13;41.42;;;27.42;;
5674;SDS011;2860;54.284;10.158;2022-09-09T01:32:42;40.95;;;26.65;;
5674;SDS011;2860;54.284;10.158;2022-09-09T01:37:52;39.10;;;25.08;;
5674;SDS011;2860;54.284;10.158;2022-09-09T01:40:18;37.92;;;26.00;;
5674;SDS011;2860;54.284;10.158;2022-09-09T01:42:43;40.55;;;26.30;;
5674;SDS011;2860;54.284;10.158;2022-09-09T01:45:09;34.40;;;24.40;;
5674;SDS011;2860;54.284;10.158;2022-09-09T01:47:35;41.13;;;23.73;;
5674;SDS011;2860;54.284;10.158;2022-09-09T01:50:01;35.30;;;24.88;;
5674;SDS011;2860;54.284;10.158;2022-09-09T01:52:27;31.40;;;22.73;;
5674;SDS011;2860;54.284;10.158;2022-09-09T01:54:54;31.65;;;22.23;;
5674;SDS011;2860;54.284;10.158;2022-09-09T01:57:24;34.33;;;24.33;;
5674;SDS011;2860;54.284;10.158;2022-09-09T01:59:56;33.70;;;22.77;;
5674;SDS011;2860;54.284;10.158;2022-09-09T02:02:39;34.72;;;22.85;;
5674;SDS011;2860;54.284;10.158;2022-09-09T02:08:09;30.52;;;23.00;;
5674;SDS011;2860;54.284;10.158;2022-09-09T02:10:45;49.67;;;24.58;;
5674;SDS011;2860;54.284;10.158;2022-09-09T02:13:14;34.95;;;23.55;;
5674;SDS011;2860;54.284;10.158;2022-09-09T02:16:00;35.20;;;24.88;;
5674;SDS011;2860;54.284;10.158;2022-09-09T02:18:41;35.30;;;24.02;;
5674;SDS011;2860;54.284;10.158;2022-09-09T02:21:12;34.78;;;22.95;;
5674;SDS011;2860;54.284;10.158;2022-09-09T02:23:39;30.67;;;20.83;;
5674;SDS011;2860;54.284;10.158;2022-09-09T02:26:07;30.23;;;23.27;;
5674;SDS011;2860;54.284;10.158;2022-09-09T02:28:35;29.75;;;22.35;;
5674;SDS011;2860;54.284;10.158;2022-09-09T02:31:03;39.00;;;24.60;;
5674;SDS011;2860;54.284;10.158;2022-09-09T02:33:30;33.17;;;23.83;;
5674;SDS011;2860;54.284;10.158;2022-09-09T02:36:04;33.95;;;23.58;;
5674;SDS011;2860;54.284;10.158;2022-09-09T02:38:34;44.05;;;27.17;;
5674;SDS011;2860;54.284;10.158;2022-09-09T02:41:03;45.30;;;25.20;;
5674;SDS011;2860;54.284;10.158;2022-09-09T02:43:33;36.40;;;23.00;;
5674;SDS011;2860;54.284;10.158;2022-09-09T02:49:03;38.30;;;25.35;;
5674;SDS011;2860;54.284;10.158;2022-09-09T02:52:00;35.20;;;23.45;;
5674;SDS011;2860;54.284;10.158;2022-09-09T02:54:31;43.42;;;24.20;;
5674;SDS011;2860;54.284;10.158;2022-09-09T02:57:06;58.15;;;29.45;;
5674;SDS011;2860;54.284;10.158;2022-09-09T02:59:41;52.00;;;30.17;;
5674;SDS011;2860;54.284;10.158;2022-09-09T03:02:09;56.13;;;30.20;;
5674;SDS011;2860;54.284;10.158;2022-09-09T03:04:36;62.53;;;31.23;;
5674;SDS011;2860;54.284;10.158;2022-09-09T03:07:03;60.42;;;32.97;;
5674;SDS011;2860;54.284;10.158;2022-09-09T03:09:28;57.33;;;30.02;;
5674;SDS011;2860;54.284;10.158;2022-09-09T03:11:54;55.88;;;30.48;;
5674;SDS011;2860;54.284;10.158;2022-09-09T03:14:20;63.63;;;32.67;;
5674;SDS011;2860;54.284;10.158;2022-09-09T03:16:49;68.30;;;32.33;;
5674;SDS011;2860;54.284;10.158;2022-09-09T03:19:15;72.72;;;34.30;;
5674;SDS011;2860;54.284;10.158;2022-09-09T03:21:41;49.22;;;28.88;;
5674;SDS011;2860;54.284;10.158;2022-09-09T03:24:06;61.72;;;30.55;;
5674;SDS011;2860;54.284;10.158;2022-09-09T03:26:32;64.55;;;32.78;;
5674;SDS011;2860;54.284;10.158;2022-09-09T03:28:58;61.38;;;31.55;;
5674;SDS011;2860;54.284;10.158;2022-09-09T03:31:25;71.32;;;34.10;;
5674;SDS011;2860;54.284;10.158;2022-09-09T03:33:51;70.20;;;31.10;;
5674;SDS011;2860;54.284;10.158;2022-09-09T03:36:17;62.80;;;33.55;;
5674;SDS011;2860;54.284;10.158;2022-09-09T03:38:42;63.55;;;29.83;;
5674;SDS011;2860;54.284;10.158;2022-09-09T03:41:08;63.60;;;31.48;;
5674;SDS011;2860;54.284;10.158;2022-09-09T03:43:33;61.67;;;30.02;;
5674;SDS011;2860;54.284;10.158;2022-09-09T03:45:59;57.60;;;30.92;;
5674;SDS011;2860;54.284;10.158;2022-09-09T03:48:25;65.55;;;29.25;;
5674;SDS011;2860;54.284;10.158;2022-09-09T03:50:53;61.85;;;28.50;;
5674;SDS011;2860;54.284;10.158;2022-09-09T03:53:20;73.72;;;29.95;;
5674;SDS011;2860;54.284;10.158;2022-09-09T03:55:48;70.10;;;28.73;;
5674;SDS011;2860;54.284;10.158;2022-09-09T03:58:17;68.25;;;29.40;;
5674;SDS011;2860;54.284;10.158;2022-09-09T04:00:43;62.67;;;29.85;;
5674;SDS011;2860;54.284;10.158;2022-09-09T04:03:21;68.38;;;30.70;;
5674;SDS011;2860;54.284;10.158;2022-09-09T04:05:49;60.60;;;30.02;;
5674;SDS011;2860;54.284;10.158;2022-09-09T04:08:18;54.28;;;28.05;;
5674;SDS011;2860;54.284;10.158;2022-09-09T04:10:45;65.45;;;31.52;;
5674;SDS011;2860;54.284;10.158;2022-09-09T04:13:12;65.70;;;30.40;;
5674;SDS011;2860;54.284;10.158;2022-09-09T04:15:40;54.38;;;27.92;;
5674;SDS011;2860;54.284;10.158;2022-09-09T04:18:06;57.85;;;28.58;;
5674;SDS011;2860;54.284;10.158;2022-09-09T04:20:31;59.50;;;29.42;;
5674;SDS011;2860;54.284;10.158;2022-09-09T04:22:57;55.95;;;29.05;;
5674;SDS011;2860;54.284;10.158;2022-09-09T04:25:23;57.05;;;27.85;;
5674;SDS011;2860;54.284;10.158;2022-09-09T04:27:53;59.40;;;27.65;;
5674;SDS011;2860;54.284;10.158;2022-09-09T04:30:19;49.45;;;25.42;;
5674;SDS011;2860;54.284;10.158;2022-09-09T04:32:45;54.28;;;28.80;;
5674;SDS011;2860;54.284;10.158;2022-09-09T04:35:11;61.40;;;28.15;;
5674;SDS011;2860;54.284;10.158;2022-09-09T04:37:37;56.25;;;28.77;;
5674;SDS011;2860;54.284;10.158;2022-09-09T04:40:02;65.85;;;30.10;;
5674;SDS011;2860;54.284;10.158;2022-09-09T04:42:28;59.95;;;29.10;;
5674;SDS011;2860;54.284;10.158;2022-09-09T04:44:54;67.38;;;32.28;;
5674;SDS011;2860;54.284;10.158;2022-09-09T04:47:19;57.38;;;29.30;;
5674;SDS011;2860;54.284;10.158;2022-09-09T04:49:45;60.22;;;29.30;;
5674;SDS011;2860;54.284;10.158;2022-09-09T04:52:10;48.70;;;26.23;;
5674;SDS011;2860;54.284;10.158;2022-09-09T04:54:36;54.33;;;28.10;;
5674;SDS011;2860;54.284;10.158;2022-09-09T04:57:02;53.42;;;28.45;;
5674;SDS011;2860;54.284;10.158;2022-09-09T04:59:27;52.97;;;27.85;;
5674;SDS011;2860;54.284;10.158;2022-09-09T05:01:53;56.63;;;27.88;;
5674;SDS011;2860;54.284;10.158;2022-09-09T05:04:20;51.72;;;27.50;;
5674;SDS011;2860;54.284;10.158;2022-09-09T05:06:46;57.85;;;28.95;;
5674;SDS011;2860;54.284;10.158;2022-09-09T05:09:12;60.08;;;29.20;;
5674;SDS011;2860;54.284;10.158;2022-09-09T05:11:37;60.97;;;28.02;;
5674;SDS011;2860;54.284;10.158;2022-09-09T05:14:03;63.60;;;29.92;;
5674;SDS011;2860;54.284;10.158;2022-09-09T05:16:29;60.58;;;27.80;;
5674;SDS011;2860;54.284;10.158;2022-09-09T05:18:55;70.20;;;30.50;;
5674;SDS011;2860;54.284;10.158;2022-09-09T05:21:21;90.60;;;45.55;;
5674;SDS011;2860;54.284;10.158;2022-09-09T05:23:50;71.30;;;33.75;;
5674;SDS011;2860;54.284;10.158;2022-09-09T05:26:17;65.53;;;29.60;;
5674;SDS011;2860;54.284;10.158;2022-09-09T05:28:44;63.20;;;30.70;;
5674;SDS011;2860;54.284;10.158;2022-09-09T05:31:10;57.75;;;30.88;;
5674;SDS011;2860;54.284;10.158;2022-09-09T05:33:38;63.60;;;31.65;;
5674;SDS011;2860;54.284;10.158;2022-09-09T05:36:08;57.53;;;31.35;;
5674;SDS011;2860;54.284;10.158;2022-09-09T05:38:37;56.35;;;28.63;;
5674;SDS011;2860;54.284;10.158;2022-09-09T05:41:04;61.30;;;31.58;;
5674;SDS011;2860;54.284;10.158;2022-09-09T05:43:30;63.83;;;30.60;;
5674;SDS011;2860;54.284;10.158;2022-09-09T05:48:36;69.60;;;32.17;;
5674;SDS011;2860;54.284;10.158;2022-09-09T05:51:03;64.88;;;31.15;;
5674;SDS011;2860;54.284;10.158;2022-09-09T05:53:31;61.83;;;31.17;;
5674;SDS011;2860;54.284;10.158;2022-09-09T05:56:02;62.78;;;30.45;;
5674;SDS011;2860;54.284;10.158;2022-09-09T05:58:48;61.63;;;31.50;;
5674;SDS011;2860;54.284;10.158;2022-09-09T06:01:18;72.72;;;36.20;;
5674;SDS011;2860;54.284;10.158;2022-09-09T06:03:44;69.78;;;30.40;;
5674;SDS011;2860;54.284;10.158;2022-09-09T06:06:13;62.65;;;30.88;;
5674;SDS011;2860;54.284;10.158;2022-09-09T06:08:41;63.78;;;30.80;;
5674;SDS011;2860;54.284;10.158;2022-09-09T06:11:10;76.15;;;32.58;;
5674;SDS011;2860;54.284;10.158;2022-09-09T06:13:40;71.63;;;31.67;;
5674;SDS011;2860;54.284;10.158;2022-09-09T06:16:07;88.45;;;33.70;;
5674;SDS011;2860;54.284;10.158;2022-09-09T06:18:38;63.85;;;28.98;;
5674;SDS011;2860;54.284;10.158;2022-09-09T06:21:07;68.88;;;31.70;;
5674;SDS011;2860;54.284;10.158;2022-09-09T06:23:39;67.05;;;30.77;;
5674;SDS011;2860;54.284;10.158;2022-09-09T06:26:12;61.22;;;28.27;;
5674;SDS011;2860;54.284;10.158;2022-09-09T06:28:42;63.22;;;28.63;;
5674;SDS011;2860;54.284;10.158;2022-09-09T06:31:10;65.63;;;29.58;;
5674;SDS011;2860;54.284;10.158;2022-09-09T06:33:38;71.72;;;31.88;;
5674;SDS011;2860;54.284;10.158;2022-09-09T06:36:06;65.13;;;29.90;;
5674;SDS011;2860;54.284;10.158;2022-09-09T06:38:35;67.32;;;29.77;;
5674;SDS011;2860;54.284;10.158;2022-09-09T06:41:00;69.10;;;30.48;;
5674;SDS011;2860;54.284;10.158;2022-09-09T06:43:26;65.88;;;29.77;;
5674;SDS011;2860;54.284;10.158;2022-09-09T06:45:56;65.60;;;29.17;;
5674;SDS011;2860;54.284;10.158;2022-09-09T06:48:23;57.67;;;28.45;;
5674;SDS011;2860;54.284;10.158;2022-09-09T06:50:50;59.90;;;29.67;;
5674;SDS011;2860;54.284;10.158;2022-09-09T06:53:27;57.92;;;29.75;;
5674;SDS011;2860;54.284;10.158;2022-09-09T06:55:52;51.33;;;27.20;;
5674;SDS011;2860;54.284;10.158;2022-09-09T06:58:19;54.38;;;28.65;;
5674;SDS011;2860;54.284;10.158;2022-09-09T07:00:46;49.97;;;27.75;;
5674;SDS011;2860;54.284;10.158;2022-09-09T07:03:12;57.85;;;27.88;;
5674;SDS011;2860;54.284;10.158;2022-09-09T07:05:38;56.97;;;26.95;;
5674;SDS011;2860;54.284;10.158;2022-09-09T07:08:04;59.30;;;28.90;;
5674;SDS011;2860;54.284;10.158;2022-09-09T07:10:30;58.33;;;28.27;;
5674;SDS011;2860;54.284;10.158;2022-09-09T07:12:56;54.15;;;29.15;;
5674;SDS011;2860;54.284;10.158;2022-09-09T07:15:21;53.97;;;28.45;;
5674;SDS011;2860;54.284;10.158;2022-09-09T07:17:47;46.85;;;28.48;;
5674;SDS011;2860;54.284;10.158;2022-09-09T07:20:13;51.92;;;27.35;;
5674;SDS011;2860;54.284;10.158;2022-09-09T07:22:40;45.00;;;26.38;;
5674;SDS011;2860;54.284;10.158;2022-09-09T07:25:06;49.78;;;27.67;;
5674;SDS011;2860;54.284;10.158;2022-09-09T07:27:32;44.00;;;26.10;;
5674;SDS011;2860;54.284;10.158;2022-09-09T07:29:58;44.05;;;28.30;;
5674;SDS011;2860;54.284;10.158;2022-09-09T07:32:23;42.80;;;27.08;;
5674;SDS011;2860;54.284;10.158;2022-09-09T07:34:50;49.38;;;27.17;;
5674;SDS011;2860;54.284;10.158;2022-09-09T07:37:16;48.92;;;27.20;;
5674;SDS011;2860;54.284;10.158;2022-09-09T07:39:42;45.55;;;27.58;;
5674;SDS011;2860;54.284;10.158;2022-09-09T07:42:09;40.85;;;25.75;;
5674;SDS011;2860;54.284;10.158;2022-09-09T07:44:36;44.33;;;27.00;;
5674;SDS011;2860;54.284;10.158;2022-09-09T07:47:04;46.45;;;28.23;;
5674;SDS011;2860;54.284;10.158;2022-09-09T07:49:30;45.28;;;27.23;;
5674;SDS011;2860;54.284;10.158;2022-09-09T07:51:57;51.72;;;29.70;;
5674;SDS011;2860;54.284;10.158;2022-09-09T07:54:23;42.50;;;26.90;;
5674;SDS011;2860;54.284;10.158;2022-09-09T07:56:48;43.72;;;26.02;;
5674;SDS011;2860;54.284;10.158;2022-09-09T07:59:15;44.10;;;27.40;;
5674;SDS011;2860;54.284;10.158;2022-09-09T08:02:01;45.83;;;27.67;;
5674;SDS011;2860;54.284;10.158;2022-09-09T08:04:26;35.33;;;24.17;;
5674;SDS011;2860;54.284;10.158;2022-09-09T08:06:56;32.72;;;25.15;;
5674;SDS011;2860;54.284;10.158;2022-09-09T08:09:24;34.72;;;24.30;;
5674;SDS011;2860;54.284;10.158;2022-09-09T08:11:52;34.95;;;25.08;;
5674;SDS011;2860;54.284;10.158;2022-09-09T08:14:17;31.35;;;23.35;;
5674;SDS011;2860;54.284;10.158;2022-09-09T08:16:45;42.42;;;22.38;;
5674;SDS011;2860;54.284;10.158;2022-09-09T08:19:11;29.73;;;22.23;;
5674;SDS011;2860;54.284;10.158;2022-09-09T08:21:38;29.58;;;22.02;;
5674;SDS011;2860;54.284;10.158;2022-09-09T08:24:05;26.25;;;19.45;;
5674;SDS011;2860;54.284;10.158;2022-09-09T08:26:35;29.88;;;20.52;;
5674;SDS011;2860;54.284;10.158;2022-09-09T08:29:03;25.60;;;19.75;;
5674;SDS011;2860;54.284;10.158;2022-09-09T08:31:31;23.70;;;19.45;;
5674;SDS011;2860;54.284;10.158;2022-09-09T08:34:10;24.80;;;20.30;;
5674;SDS011;2860;54.284;10.158;2022-09-09T08:36:38;25.17;;;18.13;;
5674;SDS011;2860;54.284;10.158;2022-09-09T08:39:07;28.40;;;19.17;;
5674;SDS011;2860;54.284;10.158;2022-09-09T08:52:39;22.25;;;18.15;;
5674;SDS011;2860;54.284;10.158;2022-09-09T08:55:35;22.77;;;20.40;;
5674;SDS011;2860;54.284;10.158;2022-09-09T08:58:18;22.52;;;19.92;;
5674;SDS011;2860;54.284;10.158;2022-09-09T09:03:47;26.15;;;19.40;;
5674;SDS011;2860;54.284;10.158;2022-09-09T09:11:35;24.98;;;22.30;;
5674;SDS011;2860;54.284;10.158;2022-09-09T09:14:03;26.50;;;20.88;;
5674;SDS011;2860;54.284;10.158;2022-09-09T09:17:26;22.45;;;20.15;;
5674;SDS011;2860;54.284;10.158;2022-09-09T09:19:38;21.92;;;19.67;;
5674;SDS011;2860;54.284;10.158;2022-09-09T09:27:43;21.42;;;19.50;;
5674;SDS011;2860;54.284;10.158;2022-09-09T09:30:18;21.42;;;19.25;;
5674;SDS011;2860;54.284;10.158;2022-09-09T09:35:42;20.42;;;18.73;;
5674;SDS011;2860;54.284;10.158;2022-09-09T09:38:21;21.95;;;19.55;;
5674;SDS011;2860;54.284;10.158;2022-09-09T09:40:49;20.17;;;18.52;;
5674;SDS011;2860;54.284;10.158;2022-09-09T09:43:20;21.60;;;17.77;;
5674;SDS011;2860;54.284;10.158;2022-09-09T09:45:50;20.40;;;18.88;;
5674;SDS011;2860;54.284;10.158;2022-09-09T09:48:15;19.65;;;17.65;;
5674;SDS011;2860;54.284;10.158;2022-09-09T09:50:51;19.80;;;17.92;;
5674;SDS011;2860;54.284;10.158;2022-09-09T09:53:26;19.33;;;17.45;;
5674;SDS011;2860;54.284;10.158;2022-09-09T09:55:54;18.08;;;16.67;;
5674;SDS011;2860;54.284;10.158;2022-09-09T09:58:22;17.50;;;15.98;;
5674;SDS011;2860;54.284;10.158;2022-09-09T10:00:52;18.55;;;17.05;;
5674;SDS011;2860;54.284;10.158;2022-09-09T10:03:22;17.98;;;16.45;;
5674;SDS011;2860;54.284;10.158;2022-09-09T10:05:55;17.48;;;16.05;;
5674;SDS011;2860;54.284;10.158;2022-09-09T10:08:21;20.50;;;16.30;;
5674;SDS011;2860;54.284;10.158;2022-09-09T10:10:53;18.70;;;16.90;;
5674;SDS011;2860;54.284;10.158;2022-09-09T10:13:29;17.65;;;16.30;;
5674;SDS011;2860;54.284;10.158;2022-09-09T10:18:48;13.65;;;12.60;;
5674;SDS011;2860;54.284;10.158;2022-09-09T10:24:14;9.25;;;8.77;;
5674;SDS011;2860;54.284;10.158;2022-09-09T10:26:51;9.48;;;8.43;;
5674;SDS011;2860;54.284;10.158;2022-09-09T10:29:51;7.50;;;7.22;;
5674;SDS011;2860;54.284;10.158;2022-09-09T10:35:04;6.60;;;6.20;;
5674;SDS011;2860;54.284;10.158;2022-09-09T10:40:33;6.65;;;6.35;;
5674;SDS011;2860;54.284;10.158;2022-09-09T10:43:06;6.05;;;5.70;;
5674;SDS011;2860;54.284;10.158;2022-09-09T10:48:16;5.10;;;4.13;;
5674;SDS011;2860;54.284;10.158;2022-09-09T10:50:54;4.60;;;4.32;;
5674;SDS011;2860;54.284;10.158;2022-09-09T10:56:25;4.03;;;3.83;;
5674;SDS011;2860;54.284;10.158;2022-09-09T10:59:06;3.25;;;2.75;;
5674;SDS011;2860;54.284;10.158;2022-09-09T11:01:46;3.38;;;3.25;;
5674;SDS011;2860;54.284;10.158;2022-09-09T11:04:23;2.92;;;2.83;;
5674;SDS011;2860;54.284;10.158;2022-09-09T11:06:55;3.10;;;2.90;;
5674;SDS011;2860;54.284;10.158;2022-09-09T11:09:23;3.92;;;2.95;;
5674;SDS011;2860;54.284;10.158;2022-09-09T11:11:55;2.75;;;2.55;;
5674;SDS011;2860;54.284;10.158;2022-09-09T11:14:27;2.78;;;2.67;;
5674;SDS011;2860;54.284;10.158;2022-09-09T11:17:12;3.53;;;2.15;;
5674;SDS011;2860;54.284;10.158;2022-09-09T11:19:43;1.73;;;1.73;;
5674;SDS011;2860;54.284;10.158;2022-09-09T11:22:16;1.58;;;1.58;;
5674;SDS011;2860;54.284;10.158;2022-09-09T11:27:36;1.77;;;1.65;;
5674;SDS011;2860;54.284;10.158;2022-09-09T11:30:32;1.73;;;1.63;;
5674;SDS011;2860;54.284;10.158;2022-09-09T11:33:32;1.33;;;1.33;;
5674;SDS011;2860;54.284;10.158;2022-09-09T11:39:09;0.90;;;0.90;;
5674;SDS011;2860;54.284;10.158;2022-09-09T11:41:44;1.38;;;1.20;;
5674;SDS011;2860;54.284;10.158;2022-09-09T11:44:11;1.20;;;1.15;;
5674;SDS011;2860;54.284;10.158;2022-09-09T11:46:41;1.17;;;1.15;;
5674;SDS011;2860;54.284;10.158;2022-09-09T11:49:27;1.67;;;0.85;;
5674;SDS011;2860;54.284;10.158;2022-09-09T11:51:54;0.65;;;0.65;;
5674;SDS011;2860;54.284;10.158;2022-09-09T11:54:26;3.42;;;1.35;;
5674;SDS011;2860;54.284;10.158;2022-09-09T11:56:55;0.90;;;0.90;;
5674;SDS011;2860;54.284;10.158;2022-09-09T11:59:33;0.60;;;0.60;;
5674;SDS011;2860;54.284;10.158;2022-09-09T12:02:02;1.35;;;0.77;;
5674;SDS011;2860;54.284;10.158;2022-09-09T12:07:28;0.55;;;0.55;;
5674;SDS011;2860;54.284;10.158;2022-09-09T12:12:44;0.60;;;0.60;;
5674;SDS011;2860;54.284;10.158;2022-09-09T12:17:42;1.17;;;0.52;;
5674;SDS011;2860;54.284;10.158;2022-09-09T12:20:13;1.45;;;0.40;;
5674;SDS011;2860;54.284;10.158;2022-09-09T12:25:31;1.30;;;0.70;;
5674;SDS011;2860;54.284;10.158;2022-09-09T12:28:17;0.50;;;0.50;;
5674;SDS011;2860;54.284;10.158;2022-09-09T12:31:06;0.50;;;0.50;;
5674;SDS011;2860;54.284;10.158;2022-09-09T12:33:35;0.82;;;0.50;;
5674;SDS011;2860;54.284;10.158;2022-09-09T12:36:02;1.08;;;0.65;;
5674;SDS011;2860;54.284;10.158;2022-09-09T12:38:35;2.60;;;0.50;;
5674;SDS011;2860;54.284;10.158;2022-09-09T12:41:03;4.22;;;1.10;;
5674;SDS011;2860;54.284;10.158;2022-09-09T12:43:29;1.15;;;0.52;;
5674;SDS011;2860;54.284;10.158;2022-09-09T12:45:56;0.70;;;0.60;;
5674;SDS011;2860;54.284;10.158;2022-09-09T12:48:35;1.30;;;0.52;;
5674;SDS011;2860;54.284;10.158;2022-09-09T12:51:03;1.75;;;0.77;;
5674;SDS011;2860;54.284;10.158;2022-09-09T12:53:33;0.75;;;0.73;;
5674;SDS011;2860;54.284;10.158;2022-09-09T12:58:32;0.60;;;0.60;;
5674;SDS011;2860;54.284;10.158;2022-09-09T13:01:00;0.68;;;0.68;;
5674;SDS011;2860;54.284;10.158;2022-09-09T13:03:29;0.82;;;0.82;;
5674;SDS011;2860;54.284;10.158;2022-09-09T13:05:57;1.63;;;0.50;;
5674;SDS011;2860;54.284;10.158;2022-09-09T13:08:25;1.02;;;0.90;;
5674;SDS011;2860;54.284;10.158;2022-09-09T13:13:24;1.15;;;0.60;;
5674;SDS011;2860;54.284;10.158;2022-09-09T13:16:21;0.60;;;0.60;;
5674;SDS011;2860;54.284;10.158;2022-09-09T13:18:51;2.22;;;0.68;;
5674;SDS011;2860;54.284;10.158;2022-09-09T13:21:17;0.95;;;0.95;;
5674;SDS011;2860;54.284;10.158;2022-09-09T13:23:48;0.88;;;0.88;;
5674;SDS011;2860;54.284;10.158;2022-09-09T13:26:22;2.60;;;0.95;;
5674;SDS011;2860;54.284;10.158;2022-09-09T13:28:49;1.30;;;1.10;;
5674;SDS011;2860;54.284;10.158;2022-09-09T13:31:23;0.77;;;0.77;;
5674;SDS011;2860;54.284;10.158;2022-09-09T13:33:53;4.47;;;1.15;;
5674;SDS011;2860;54.284;10.158;2022-09-09T13:36:27;1.52;;;0.60;;
5674;SDS011;2860;54.284;10.158;2022-09-09T13:38:57;0.70;;;0.70;;
5674;SDS011;2860;54.284;10.158;2022-09-09T13:41:28;1.38;;;0.90;;
5674;SDS011;2860;54.284;10.158;2022-09-09T13:44:01;1.05;;;0.70;;
5674;SDS011;2860;54.284;10.158;2022-09-09T13:46:35;0.85;;;0.70;;
5674;SDS011;2860;54.284;10.158;2022-09-09T13:54:10;1.63;;;0.60;;
5674;SDS011;2860;54.284;10.158;2022-09-09T13:56:38;2.20;;;0.90;;
5674;SDS011;2860;54.284;10.158;2022-09-09T13:59:05;0.70;;;0.70;;
5674;SDS011;2860;54.284;10.158;2022-09-09T14:01:35;1.48;;;0.80;;
5674;SDS011;2860;54.284;10.158;2022-09-09T14:04:02;0.82;;;0.70;;
5674;SDS011;2860;54.284;10.158;2022-09-09T14:06:28;3.63;;;1.33;;
5674;SDS011;2860;54.284;10.158;2022-09-09T14:08:54;1.77;;;1.15;;
5674;SDS011;2860;54.284;10.158;2022-09-09T14:11:20;2.20;;;1.05;;
5674;SDS011;2860;54.284;10.158;2022-09-09T14:13:47;1.65;;;1.27;;
5674;SDS011;2860;54.284;10.158;2022-09-09T14:16:14;4.85;;;3.30;;
5674;SDS011;2860;54.284;10.158;2022-09-09T14:18:41;1.15;;;0.93;;
5674;SDS011;2860;54.284;10.158;2022-09-09T14:21:06;0.80;;;0.80;;
5674;SDS011;2860;54.284;10.158;2022-09-09T14:23:33;1.48;;;0.70;;
5674;SDS011;2860;54.284;10.158;2022-09-09T14:25:59;1.05;;;0.77;;
5674;SDS011;2860;54.284;10.158;2022-09-09T14:28:24;0.50;;;0.50;;
5674;SDS011;2860;54.284;10.158;2022-09-09T14:30:50;3.95;;;0.50;;
5674;SDS011;2860;54.284;10.158;2022-09-09T14:33:16;0.82;;;0.50;;
5674;SDS011;2860;54.284;10.158;2022-09-09T14:35:42;0.57;;;0.57;;
5674;SDS011;2860;54.284;10.158;2022-09-09T14:38:09;0.50;;;0.50;;
5674;SDS011;2860;54.284;10.158;2022-09-09T14:40:35;1.58;;;0.90;;
5674;SDS011;2860;54.284;10.158;2022-09-09T14:43:02;2.20;;;0.60;;
5674;SDS011;2860;54.284;10.158;2022-09-09T14:45:30;0.70;;;0.70;;
5674;SDS011;2860;54.284;10.158;2022-09-09T14:47:56;2.05;;;1.17;;
5674;SDS011;2860;54.284;10.158;2022-09-09T14:50:22;1.65;;;0.60;;
5674;SDS011;2860;54.284;10.158;2022-09-09T14:52:48;1.67;;;0.80;;
5674;SDS011;2860;54.284;10.158;2022-09-09T14:55:15;1.90;;;1.08;;
5674;SDS011;2860;54.284;10.158;2022-09-09T14:57:41;2.40;;;0.85;;
5674;SDS011;2860;54.284;10.158;2022-09-09T15:00:07;0.88;;;0.88;;
5674;SDS011;2860;54.284;10.158;2022-09-09T15:02:34;0.98;;;0.90;;
5674;SDS011;2860;54.284;10.158;2022-09-09T15:04:59;5.05;;;0.70;;
5674;SDS011;2860;54.284;10.158;2022-09-09T15:07:26;1.23;;;0.90;;
5674;SDS011;2860;54.284;10.158;2022-09-09T15:09:53;1.27;;;1.27;;
5674;SDS011;2860;54.284;10.158;2022-09-09T15:12:19;2.45;;;1.15;;
5674;SDS011;2860;54.284;10.158;2022-09-09T15:14:45;2.88;;;1.27;;
5674;SDS011;2860;54.284;10.158;2022-09-09T15:17:11;1.48;;;1.33;;
5674;SDS011;2860;54.284;10.158;2022-09-09T15:19:37;9.20;;;2.65;;
5674;SDS011;2860;54.284;10.158;2022-09-09T15:22:03;6.72;;;3.42;;
5674;SDS011;2860;54.284;10.158;2022-09-09T15:24:30;7.22;;;2.90;;
5674;SDS011;2860;54.284;10.158;2022-09-09T15:26:57;3.53;;;3.30;;
5674;SDS011;2860;54.284;10.158;2022-09-09T15:29:22;9.88;;;3.70;;
5674;SDS011;2860;54.284;10.158;2022-09-09T15:31:48;3.50;;;3.28;;
5674;SDS011;2860;54.284;10.158;2022-09-09T15:34:14;8.55;;;3.60;;
5674;SDS011;2860;54.284;10.158;2022-09-09T15:36:40;4.20;;;4.00;;
5674;SDS011;2860;54.284;10.158;2022-09-09T15:39:11;3.25;;;2.92;;
5674;SDS011;2860;54.284;10.158;2022-09-09T15:41:40;2.72;;;2.55;;
5674;SDS011;2860;54.284;10.158;2022-09-09T15:44:07;3.67;;;2.85;;
5674;SDS011;2860;54.284;10.158;2022-09-09T15:46:37;3.05;;;2.85;;
5674;SDS011;2860;54.284;10.158;2022-09-09T15:51:33;2.58;;;2.47;;
5674;SDS011;2860;54.284;10.158;2022-09-09T15:53:59;2.75;;;1.92;;
5674;SDS011;2860;54.284;10.158;2022-09-09T15:56:25;1.98;;;1.88;;
5674;SDS011;2860;54.284;10.158;2022-09-09T15:58:53;2.92;;;2.58;;
5674;SDS011;2860;54.284;10.158;2022-09-09T16:01:20;2.15;;;2.15;;
5674;SDS011;2860;54.284;10.158;2022-09-09T16:03:46;2.30;;;2.30;;
5674;SDS011;2860;54.284;10.158;2022-09-09T16:06:13;2.47;;;2.05;;
5674;SDS011;2860;54.284;10.158;2022-09-09T16:08:40;2.25;;;2.25;;
5674;SDS011;2860;54.284;10.158;2022-09-09T16:11:11;2.47;;;2.00;;
5674;SDS011;2860;54.284;10.158;2022-09-09T16:13:42;6.75;;;2.20;;
5674;SDS011;2860;54.284;10.158;2022-09-09T16:16:10;2.28;;;1.90;;
5674;SDS011;2860;54.284;10.158;2022-09-09T16:18:42;3.65;;;1.98;;
5674;SDS011;2860;54.284;10.158;2022-09-09T16:21:14;3.97;;;1.85;;
5674;SDS011;2860;54.284;10.158;2022-09-09T16:23:43;2.35;;;2.28;;
5674;SDS011;2860;54.284;10.158;2022-09-09T16:26:12;2.22;;;1.80;;
5674;SDS011;2860;54.284;10.158;2022-09-09T16:28:39;2.38;;;2.28;;
5674;SDS011;2860;54.284;10.158;2022-09-09T16:31:06;2.28;;;2.17;;
5674;SDS011;2860;54.284;10.158;2022-09-09T16:33:32;2.45;;;2.00;;
5674;SDS011;2860;54.284;10.158;2022-09-09T16:36:04;1.83;;;1.73;;
5674;SDS011;2860;54.284;10.158;2022-09-09T16:38:35;2.20;;;2.15;;
5674;SDS011;2860;54.284;10.158;2022-09-09T16:41:01;2.22;;;2.22;;
5674;SDS011;2860;54.284;10.158;2022-09-09T16:43:28;2.33;;;2.13;;
5674;SDS011;2860;54.284;10.158;2022-09-09T16:45:53;2.10;;;2.00;;
5674;SDS011;2860;54.284;10.158;2022-09-09T16:48:19;2.20;;;2.20;;
5674;SDS011;2860;54.284;10.158;2022-09-09T16:50:45;1.95;;;1.95;;
5674;SDS011;2860;54.284;10.158;2022-09-09T16:53:10;2.33;;;2.33;;
5674;SDS011;2860;54.284;10.158;2022-09-09T16:55:40;2.90;;;2.80;;
5674;SDS011;2860;54.284;10.158;2022-09-09T16:58:12;3.28;;;3.17;;